Terminal Aerodrome Forecast
Issued by NWS Columbia, SC

Home | Current Version | Previous Version | Text Only | Print | Product List | Glossary On
Versions: 1 2 3 4 5 6 7 8 9 10 11 12 13 14 15 16 17 18 19 20 21 22 23 24
000
FTUS42 KCAE 230500
TAFCAE
TAF
KCAE 230528Z 2306/2406 VRB03KT P6SM VCSH BKN080
     FM230900 VRB03KT 5SM BR VCSH SCT008 OVC035
     FM231200 07006KT 4SM -RA BR OVC015
     FM231500 08009KT 3SM -RA BR OVC006
     FM240200 17011KT 4SM -RA BR BKN004 OVC015=

USA.gov is the U.S. government's official web portal to all federal, state and local government web resources and services.